Time;durP1;ratioP1;P1;durP2;ratioP2;P2;SDS_P1;SDS_P2;PMS_P1;PMS_P2;Temp;Humidity;BMP_temperature;BMP_pressure;BME280_temperature;BME280_humidity;BME280_pressure;Samples;Min_cycle;Max_cycle;Signal;HPM_P1;HPM_P2
2022/06/10 01:30:55;;;;;;;3.37;3.07;;;;;;;;;;7401212;19;20207;-93
2022/06/10 01:33:24;;;;;;;3.73;3.00;;;;;;;;;;7404807;19;20181;-92
2022/06/10 01:35:57;;;;;;;7.17;3.33;;;;;;;;;;7401377;19;20461;-94
2022/06/10 01:38:26;;;;;;;6.53;3.93;;;;;;;;;;7404745;19;21278;-94
2022/06/10 01:41:04;;;;;;;5.13;4.10;;;;;;;;;;7404317;19;20161;-93
2022/06/10 01:43:39;;;;;;;4.43;3.73;;;;;;;;;;7401060;19;20165;-93
2022/06/10 01:46:05;;;;;;;3.83;3.50;;;;;;;;;;7396083;19;20176;-93
2022/06/10 01:48:49;;;;;;;5.17;3.50;;;;;;;;;;7409312;19;20152;-94
2022/06/10 01:51:15;;;;;;;3.97;3.37;;;;;;;;;;7410780;19;20495;-93
2022/06/10 01:53:45;;;;;;;6.63;4.37;;;;;;;;;;7413373;19;20160;-94
2022/06/10 01:56:11;;;;;;;4.47;3.20;;;;;;;;;;7412865;19;20187;-96
2022/06/10 01:58:39;;;;;;;5.27;3.63;;;;;;;;;;7414242;19;20149;-96
2022/06/10 02:01:07;;;;;;;5.03;3.80;;;;;;;;;;7414702;19;20402;-95
2022/06/10 02:03:41;;;;;;;4.90;3.63;;;;;;;;;;7425113;19;20156;-95
2022/06/10 02:06:09;;;;;;;8.40;4.10;;;;;;;;;;7425663;19;20168;-96
2022/06/10 02:08:39;;;;;;;5.53;3.73;;;;;;;;;;7424904;19;20515;-93
2022/06/10 02:11:12;;;;;;;6.73;4.47;;;;;;;;;;7422946;19;20152;-96
2022/06/10 02:13:41;;;;;;;5.90;4.03;;;;;;;;;;7420637;19;20185;-94
2022/06/10 02:16:10;;;;;;;6.83;4.10;;;;;;;;;;7407002;19;20202;-94
2022/06/10 02:18:40;;;;;;;4.07;3.50;;;;;;;;;;7417158;19;20184;-94
2022/06/10 02:21:07;;;;;;;4.30;3.90;;;;;;;;;;7413074;19;20156;-95
2022/06/10 02:23:38;;;;;;;6.60;4.80;;;;;;;;;;7423710;19;20158;-94
2022/06/10 02:26:05;;;;;;;6.43;4.10;;;;;;;;;;7416516;19;20180;-94
2022/06/10 02:28:34;;;;;;;5.40;4.10;;;;;;;;;;7418180;19;20159;-94
2022/06/10 02:31:03;;;;;;;3.93;3.63;;;;;;;;;;7409034;19;20511;-93
2022/06/10 02:33:29;;;;;;;5.80;4.47;;;;;;;;;;7409337;19;20157;-95
2022/06/10 02:36:02;;;;;;;8.23;4.00;;;;;;;;;;7417376;19;20200;-95
2022/06/10 02:38:28;;;;;;;5.43;4.10;;;;;;;;;;7419315;19;20201;-94
2022/06/10 02:41:00;;;;;;;7.37;4.43;;;;;;;;;;7413476;19;20153;-94
2022/06/10 02:43:43;;;;;;;8.43;4.23;;;;;;;;;;7404356;19;20145;-94
2022/06/10 02:46:12;;;;;;;4.33;3.70;;;;;;;;;;7400503;19;20169;-94
2022/06/10 02:48:47;;;;;;;4.20;3.80;;;;;;;;;;7418224;19;20972;-96
2022/06/10 02:51:15;;;;;;;6.40;4.07;;;;;;;;;;7421058;19;20144;-95
2022/06/10 02:53:41;;;;;;;7.70;4.67;;;;;;;;;;7421846;19;20152;-95
2022/06/10 02:56:15;;;;;;;7.47;3.90;;;;;;;;;;7416517;19;20208;-94
2022/06/10 03:01:35;;;;;;;7.00;4.00;;;;;;;;;;7417481;19;20131;-93
2022/06/10 03:04:04;;;;;;;5.27;3.80;;;;;;;;;;7405391;19;20172;-90
2022/06/10 03:06:47;;;;;;;5.80;3.73;;;;;;;;;;7405123;19;20176;-92
2022/06/10 03:09:17;;;;;;;6.70;4.63;;;;;;;;;;7404166;19;20152;-90
2022/06/10 03:12:02;;;;;;;7.67;4.27;;;;;;;;;;7403845;19;20177;-92
2022/06/10 03:14:43;;;;;;;5.63;4.40;;;;;;;;;;7403851;19;20172;-90
2022/06/10 03:17:12;;;;;;;7.97;4.50;;;;;;;;;;7404494;19;20248;-92
2022/06/10 03:19:47;;;;;;;8.97;5.70;;;;;;;;;;7399833;19;20197;-95
2022/06/10 03:22:23;;;;;;;6.40;5.67;;;;;;;;;;7410561;19;20192;-93
2022/06/10 03:24:49;;;;;;;5.00;4.50;;;;;;;;;;7412352;19;20541;-93
2022/06/10 03:27:19;;;;;;;16.70;5.13;;;;;;;;;;7412269;19;20152;-95
2022/06/10 03:29:50;;;;;;;7.97;5.23;;;;;;;;;;7405189;19;20156;-94
2022/06/10 03:32:22;;;;;;;6.23;4.40;;;;;;;;;;7404204;19;20159;-93
2022/06/10 03:34:50;;;;;;;5.63;4.30;;;;;;;;;;7403793;19;20216;-94
2022/06/10 03:37:18;;;;;;;6.83;4.67;;;;;;;;;;7411713;19;20152;-93
2022/06/10 03:39:49;;;;;;;7.17;4.23;;;;;;;;;;7407509;19;20164;-93
2022/06/10 03:42:17;;;;;;;5.27;4.53;;;;;;;;;;7411130;19;20160;-93
2022/06/10 03:44:43;;;;;;;7.50;3.97;;;;;;;;;;7414084;19;20164;-93
2022/06/10 03:47:14;;;;;;;5.87;3.80;;;;;;;;;;7413333;19;20156;-93
2022/06/10 03:49:47;;;;;;;5.17;3.60;;;;;;;;;;7409509;19;20144;-94
2022/06/10 03:52:21;;;;;;;6.70;3.90;;;;;;;;;;7408018;19;20145;-93
2022/06/10 03:54:47;;;;;;;6.20;4.47;;;;;;;;;;7404805;19;20168;-93
2022/06/10 03:57:14;;;;;;;6.23;3.77;;;;;;;;;;7411823;19;20152;-93
2022/06/10 03:59:40;;;;;;;5.27;3.80;;;;;;;;;;7411038;19;20462;-96
2022/06/10 04:02:06;;;;;;;4.33;3.97;;;;;;;;;;7409322;19;20201;-94
2022/06/10 04:04:32;;;;;;;4.87;3.80;;;;;;;;;;7407522;19;20145;-94
2022/06/10 04:06:58;;;;;;;5.50;4.00;;;;;;;;;;7415865;19;20166;-95
2022/06/10 04:09:24;;;;;;;7.00;4.40;;;;;;;;;;7421631;19;20129;-95
2022/06/10 04:11:50;;;;;;;5.80;4.67;;;;;;;;;;7421779;19;20182;-96
2022/06/10 04:14:16;;;;;;;6.17;4.73;;;;;;;;;;7420782;19;20140;-94
2022/06/10 04:16:42;;;;;;;6.00;4.43;;;;;;;;;;7402795;19;20183;-94
2022/06/10 04:19:08;;;;;;;7.10;4.30;;;;;;;;;;7408364;19;20196;-94
2022/06/10 04:21:34;;;;;;;5.90;4.53;;;;;;;;;;7411397;19;20583;-93
2022/06/10 04:24:00;;;;;;;6.07;4.50;;;;;;;;;;7409282;19;20160;-94
2022/06/10 04:26:26;;;;;;;8.43;4.60;;;;;;;;;;7403982;19;20180;-94
2022/06/10 04:28:52;;;;;;;6.17;5.07;;;;;;;;;;7405835;19;20148;-94
2022/06/10 04:31:19;;;;;;;5.87;4.63;;;;;;;;;;7411499;19;20164;-94
2022/06/10 04:33:45;;;;;;;5.27;4.77;;;;;;;;;;7413002;19;20513;-89
2022/06/10 04:36:14;;;;;;;5.70;5.20;;;;;;;;;;7415408;19;20173;-94
2022/06/10 04:38:39;;;;;;;7.63;4.63;;;;;;;;;;7415430;19;20164;-91
2022/06/10 04:41:06;;;;;;;6.77;5.10;;;;;;;;;;7412083;19;20153;-92
2022/06/10 04:43:33;;;;;;;7.53;5.33;;;;;;;;;;7410269;19;20167;-94
2022/06/10 04:46:01;;;;;;;7.77;5.67;;;;;;;;;;7410179;19;20168;-94
2022/06/10 04:48:27;;;;;;;12.07;5.93;;;;;;;;;;7406357;19;20581;-92
2022/06/10 04:50:53;;;;;;;11.07;5.87;;;;;;;;;;7406580;19;20148;-94
2022/06/10 04:53:19;;;;;;;5.53;5.00;;;;;;;;;;7407211;19;20145;-94
2022/06/10 04:55:45;;;;;;;6.27;5.63;;;;;;;;;;7413647;19;20169;-93
2022/06/10 04:58:12;;;;;;;7.10;4.80;;;;;;;;;;7420779;19;20153;-96
2022/06/10 05:00:40;;;;;;;5.87;4.73;;;;;;;;;;7418259;19;20494;-95
2022/06/10 05:03:06;;;;;;;5.93;4.77;;;;;;;;;;7420676;19;20169;-95
2022/06/10 05:05:33;;;;;;;6.83;4.77;;;;;;;;;;7418289;19;20201;-93
2022/06/10 05:07:59;;;;;;;7.00;5.40;;;;;;;;;;7420473;19;20169;-94
2022/06/10 05:10:25;;;;;;;6.50;5.40;;;;;;;;;;7408124;19;20148;-93
2022/06/10 05:12:51;;;;;;;6.83;4.73;;;;;;;;;;7393719;19;20153;-93
2022/06/10 05:15:20;;;;;;;6.53;4.93;;;;;;;;;;7393832;19;20176;-92
2022/06/10 05:17:46;;;;;;;6.50;5.30;;;;;;;;;;7395775;19;20141;-92
2022/06/10 05:20:16;;;;;;;7.03;5.07;;;;;;;;;;7389518;19;20149;-92
2022/06/10 05:22:42;;;;;;;6.23;5.37;;;;;;;;;;7390218;19;20153;-92
2022/06/10 05:25:08;;;;;;;7.13;4.93;;;;;;;;;;7390715;19;20165;-94
2022/06/10 05:27:34;;;;;;;10.40;5.43;;;;;;;;;;7397072;19;20152;-92
2022/06/10 05:30:00;;;;;;;8.40;5.43;;;;;;;;;;7407132;19;20145;-92
2022/06/10 05:32:26;;;;;;;5.67;5.03;;;;;;;;;;7405092;19;20236;-92
2022/06/10 05:34:53;;;;;;;6.90;5.00;;;;;;;;;;7404420;19;20177;-93
2022/06/10 05:37:25;;;;;;;8.00;5.07;;;;;;;;;;7418898;19;20153;-92
2022/06/10 05:39:52;;;;;;;7.43;5.47;;;;;;;;;;7423784;19;20141;-94
2022/06/10 05:42:18;;;;;;;7.13;5.63;;;;;;;;;;7425182;19;20359;-94
2022/06/10 05:44:49;;;;;;;7.77;5.93;;;;;;;;;;7420815;19;20198;-92
2022/06/10 05:47:17;;;;;;;8.90;5.30;;;;;;;;;;7418471;19;20148;-93
2022/06/10 05:49:44;;;;;;;9.83;5.23;;;;;;;;;;7417307;19;20144;-94
2022/06/10 05:52:10;;;;;;;8.00;5.27;;;;;;;;;;7405462;19;20164;-94
2022/06/10 05:54:37;;;;;;;6.97;5.23;;;;;;;;;;7421331;19;20148;-93
2022/06/10 05:57:03;;;;;;;9.43;5.30;;;;;;;;;;7425342;19;20149;-93
2022/06/10 05:59:33;;;;;;;6.23;4.77;;;;;;;;;;7422788;19;20193;-93
2022/06/10 06:01:59;;;;;;;9.60;5.17;;;;;;;;;;7417969;19;20613;-93
2022/06/10 06:04:25;;;;;;;5.80;5.30;;;;;;;;;;7395780;19;20189;-77
2022/06/10 06:06:51;;;;;;;8.80;5.03;;;;;;;;;;7425610;19;20176;-78
2022/06/10 06:09:17;;;;;;;8.20;4.77;;;;;;;;;;7424880;19;20186;-77
2022/06/10 06:11:46;;;;;;;6.40;4.10;;;;;;;;;;7412946;19;20607;-78
2022/06/10 06:14:12;;;;;;;8.30;4.37;;;;;;;;;;7398216;19;20161;-78
2022/06/10 06:16:39;;;;;;;8.03;4.40;;;;;;;;;;7395416;19;20180;-77
2022/06/10 06:19:05;;;;;;;5.47;4.60;;;;;;;;;;7394908;19;20149;-76
2022/06/10 06:21:31;;;;;;;9.63;5.30;;;;;;;;;;7389476;19;20523;-77
2022/06/10 06:23:58;;;;;;;7.43;5.00;;;;;;;;;;7382951;19;20158;-79
2022/06/10 06:26:23;;;;;;;13.73;4.57;;;;;;;;;;7386613;19;20172;-78
2022/06/10 06:28:49;;;;;;;9.63;4.40;;;;;;;;;;7388135;19;20494;-77
2022/06/10 06:31:15;;;;;;;12.47;4.70;;;;;;;;;;7383413;19;20782;-77
2022/06/10 06:33:42;;;;;;;8.60;4.97;;;;;;;;;;7373757;19;20740;-77
2022/06/10 06:36:15;;;;;;;9.67;4.50;;;;;;;;;;7381734;19;20195;-77
2022/06/10 06:38:41;;;;;;;10.00;4.40;;;;;;;;;;7388863;19;20176;-77
2022/06/10 06:41:07;;;;;;;6.27;4.20;;;;;;;;;;7377316;19;20256;-77
2022/06/10 06:43:33;;;;;;;7.90;4.43;;;;;;;;;;7389904;19;20622;-77
2022/06/10 06:45:59;;;;;;;10.43;4.77;;;;;;;;;;7387795;19;20184;-76
2022/06/10 06:48:25;;;;;;;9.30;4.13;;;;;;;;;;7382176;19;20160;-78
2022/06/10 06:50:54;;;;;;;6.60;4.23;;;;;;;;;;7387782;19;20117;-78
2022/06/10 06:53:20;;;;;;;8.27;3.97;;;;;;;;;;7383751;19;20125;-78
2022/06/10 06:55:46;;;;;;;5.93;3.90;;;;;;;;;;7374106;19;20176;-79
2022/06/10 06:58:16;;;;;;;5.10;4.53;;;;;;;;;;7378866;19;20165;-78
2022/06/10 07:00:43;;;;;;;5.63;4.23;;;;;;;;;;7386440;19;20139;-78
2022/06/10 07:03:08;;;;;;;8.17;4.23;;;;;;;;;;7393907;19;20129;-79
2022/06/10 07:05:35;;;;;;;5.67;4.20;;;;;;;;;;7390534;19;20176;-79
2022/06/10 07:08:01;;;;;;;6.70;4.00;;;;;;;;;;7385872;19;20149;-80
2022/06/10 07:10:27;;;;;;;5.00;4.50;;;;;;;;;;7386759;19;20194;-78
2022/06/10 07:12:53;;;;;;;7.40;4.50;;;;;;;;;;7383888;19;20176;-79
2022/06/10 07:15:21;;;;;;;5.73;3.77;;;;;;;;;;7387526;19;20208;-78
2022/06/10 07:17:47;;;;;;;3.90;3.30;;;;;;;;;;7388121;19;20278;-78
2022/06/10 07:20:20;;;;;;;5.27;3.60;;;;;;;;;;7384412;19;20157;-78
2022/06/10 07:22:46;;;;;;;4.10;3.17;;;;;;;;;;7389416;19;20175;-79
2022/06/10 07:25:12;;;;;;;7.33;3.33;;;;;;;;;;7383374;19;20635;-78
2022/06/10 07:27:38;;;;;;;3.70;3.17;;;;;;;;;;7388334;19;20536;-78
2022/06/10 07:30:05;;;;;;;6.13;2.87;;;;;;;;;;7384223;19;20626;-78
2022/06/10 07:32:32;;;;;;;3.93;2.60;;;;;;;;;;7385507;19;20436;-79
2022/06/10 07:34:59;;;;;;;3.80;2.87;;;;;;;;;;7386536;19;20186;-78
2022/06/10 07:37:25;;;;;;;5.07;2.97;;;;;;;;;;7373270;19;20169;-81
2022/06/10 07:39:51;;;;;;;5.50;3.20;;;;;;;;;;7393239;19;20153;-81
2022/06/10 07:42:17;;;;;;;9.27;3.20;;;;;;;;;;7385935;19;20148;-83
2022/06/10 07:44:44;;;;;;;5.17;3.70;;;;;;;;;;7378750;19;20682;-80
2022/06/10 07:47:11;;;;;;;3.90;2.10;;;;;;;;;;7390097;19;20634;-81
2022/06/10 07:49:37;;;;;;;5.20;2.60;;;;;;;;;;7393759;19;20670;-81
2022/06/10 07:52:04;;;;;;;4.80;2.30;;;;;;;;;;7392199;19;20164;-85
2022/06/10 07:54:30;;;;;;;4.60;2.40;;;;;;;;;;7393063;19;20149;-83
2022/06/10 07:56:56;;;;;;;3.57;2.30;;;;;;;;;;7385605;19;20180;-79
2022/06/10 07:59:22;;;;;;;3.77;2.40;;;;;;;;;;7372195;19;20650;-78
2022/06/10 08:01:48;;;;;;;5.57;3.30;;;;;;;;;;7378219;19;20143;-79
2022/06/10 08:04:14;;;;;;;3.63;2.77;;;;;;;;;;7378508;19;20208;-79
2022/06/10 08:06:42;;;;;;;3.47;2.60;;;;;;;;;;7385248;19;20189;-79
2022/06/10 08:09:08;;;;;;;6.23;2.70;;;;;;;;;;7381088;19;22906;-79
2022/06/10 08:11:34;;;;;;;5.50;2.60;;;;;;;;;;7383287;19;20208;-79
2022/06/10 08:14:00;;;;;;;3.75;2.67;;;;;;;;;;7384002;19;20149;-78
2022/06/10 08:16:26;;;;;;;6.75;2.60;;;;;;;;;;7386055;19;20185;-79
2022/06/10 08:18:53;;;;;;;3.47;2.72;;;;;;;;;;7387079;19;20113;-79
2022/06/10 08:24:06;;;;;;;3.95;2.28;;;;;;;;;;7390710;19;20148;-79
2022/06/10 08:26:32;;;;;;;41.30;4.72;;;;;;;;;;7388355;19;20725;-80
2022/06/10 08:28:59;;;;;;;4.70;1.92;;;;;;;;;;7394038;19;20133;-81
2022/06/10 08:31:25;;;;;;;3.97;2.30;;;;;;;;;;7388941;19;20149;-81
2022/06/10 08:33:52;;;;;;;8.68;2.40;;;;;;;;;;7390816;19;20212;-82
2022/06/10 08:36:18;;;;;;;5.00;2.25;;;;;;;;;;7391179;19;20157;-80
2022/06/10 08:38:44;;;;;;;5.93;2.88;;;;;;;;;;7386405;19;20137;-79
2022/06/10 08:41:10;;;;;;;6.38;3.00;;;;;;;;;;7387158;19;20156;-80
2022/06/10 08:43:39;;;;;;;6.28;2.50;;;;;;;;;;7393749;19;20140;-80
2022/06/10 08:46:05;;;;;;;5.40;2.03;;;;;;;;;;7393409;19;20622;-83
2022/06/10 08:48:41;;;;;;;6.60;2.50;;;;;;;;;;7395542;19;20152;-83
2022/06/10 08:51:07;;;;;;;5.55;2.60;;;;;;;;;;7389216;19;20144;-80
2022/06/10 08:53:52;;;;;;;4.70;2.33;;;;;;;;;;7390377;19;20168;-81
2022/06/10 08:56:47;;;;;;;4.97;1.67;;;;;;;;;;7393738;19;20152;-82
2022/06/10 08:59:19;;;;;;;6.07;2.88;;;;;;;;;;7393355;19;20626;-82
2022/06/10 09:01:51;;;;;;;8.25;3.25;;;;;;;;;;7388375;19;20618;-82
2022/06/10 09:04:20;;;;;;;8.52;2.78;;;;;;;;;;7388644;19;20128;-81
2022/06/10 09:06:51;;;;;;;5.57;2.22;;;;;;;;;;7387960;19;20184;-82
2022/06/10 09:09:18;;;;;;;4.40;2.08;;;;;;;;;;7396151;19;20153;-81
2022/06/10 09:11:47;;;;;;;7.53;2.30;;;;;;;;;;7393439;19;20133;-81
2022/06/10 09:14:21;;;;;;;5.25;2.33;;;;;;;;;;7397941;19;20137;-79
2022/06/10 09:16:59;;;;;;;4.88;2.03;;;;;;;;;;7388341;19;20231;-80
2022/06/10 09:19:30;;;;;;;7.13;2.80;;;;;;;;;;7387493;19;20120;-79
2022/06/10 09:22:03;;;;;;;4.50;2.25;;;;;;;;;;7389059;19;20531;-80
2022/06/10 09:24:38;;;;;;;7.05;1.88;;;;;;;;;;7387700;19;20160;-81
2022/06/10 09:27:27;;;;;;;5.90;1.60;;;;;;;;;;7389602;19;20175;-79
2022/06/10 09:29:53;;;;;;;5.38;2.47;;;;;;;;;;7391502;19;20255;-81
2022/06/10 09:32:35;;;;;;;5.82;2.08;;;;;;;;;;7394355;19;20173;-79
2022/06/10 09:35:15;;;;;;;4.63;1.88;;;;;;;;;;7382117;19;20536;-79
2022/06/10 09:37:46;;;;;;;3.45;1.65;;;;;;;;;;7388066;19;20473;-79
2022/06/10 09:40:45;;;;;;;3.78;1.85;;;;;;;;;;7392146;19;20248;-79
2022/06/10 09:43:11;;;;;;;4.70;2.00;;;;;;;;;;7392116;19;20502;-80
2022/06/10 09:45:46;;;;;;;6.00;1.80;;;;;;;;;;7391514;19;20148;-79
2022/06/10 09:48:24;;;;;;;3.65;1.75;;;;;;;;;;7390764;19;20156;-79
2022/06/10 09:51:10;;;;;;;5.82;2.17;;;;;;;;;;7398677;19;20606;-79
2022/06/10 09:53:39;;;;;;;7.57;2.90;;;;;;;;;;7402524;19;20163;-79
2022/06/10 09:56:12;;;;;;;6.03;1.88;;;;;;;;;;7391319;19;20144;-79
2022/06/10 09:58:41;;;;;;;5.82;1.95;;;;;;;;;;7395323;19;20482;-79
2022/06/10 10:01:29;;;;;;;4.18;1.75;;;;;;;;;;7388508;19;20619;-79
2022/06/10 10:03:55;;;;;;;4.57;1.90;;;;;;;;;;7393152;19;20533;-79
2022/06/10 10:06:27;;;;;;;4.07;1.35;;;;;;;;;;7373675;19;20451;-79
2022/06/10 10:08:54;;;;;;;4.07;1.77;;;;;;;;;;7384341;19;20129;-78
2022/06/10 10:11:32;;;;;;;5.32;1.85;;;;;;;;;;7386358;19;20156;-78
2022/06/10 10:14:04;;;;;;;2.75;1.35;;;;;;;;;;7387139;19;20571;-78
2022/06/10 10:16:49;;;;;;;3.78;1.63;;;;;;;;;;7387984;19;21013;-78
2022/06/10 10:19:15;;;;;;;5.90;1.77;;;;;;;;;;7386066;19;20152;-79
2022/06/10 10:21:41;;;;;;;5.18;1.77;;;;;;;;;;7390571;19;20125;-80
2022/06/10 10:24:18;;;;;;;4.20;1.85;;;;;;;;;;7391531;19;20136;-79
2022/06/10 10:26:45;;;;;;;2.92;1.23;;;;;;;;;;7386905;19;20217;-79
2022/06/10 10:29:29;;;;;;;3.97;1.80;;;;;;;;;;7381228;19;20243;-78
2022/06/10 10:31:59;;;;;;;3.00;1.60;;;;;;;;;;7392798;19;20152;-79
2022/06/10 10:34:26;;;;;;;2.28;1.52;;;;;;;;;;7390960;19;20583;-79
2022/06/10 10:36:54;;;;;;;4.45;1.55;;;;;;;;;;7392334;19;20173;-78
2022/06/10 10:39:26;;;;;;;2.85;1.40;;;;;;;;;;7395065;19;20152;-78
2022/06/10 10:41:54;;;;;;;3.88;1.55;;;;;;;;;;7401995;19;20148;-79
2022/06/10 10:44:26;;;;;;;1.67;1.30;;;;;;;;;;7408151;19;20149;-78
2022/06/10 10:46:58;;;;;;;3.25;1.30;;;;;;;;;;7402280;19;20193;-78
2022/06/10 10:49:26;;;;;;;3.45;1.60;;;;;;;;;;7393094;19;20656;-79
2022/06/10 10:51:53;;;;;;;2.58;1.27;;;;;;;;;;7393968;19;20153;-78
2022/06/10 10:54:30;;;;;;;4.38;1.45;;;;;;;;;;7393499;19;20607;-79
2022/06/10 10:56:56;;;;;;;2.20;1.48;;;;;;;;;;7394138;19;20148;-79
2022/06/10 10:59:29;;;;;;;2.63;1.40;;;;;;;;;;7392909;19;20521;-78
2022/06/10 11:01:56;;;;;;;3.40;1.30;;;;;;;;;;7390556;19;20133;-78
2022/06/10 11:04:27;;;;;;;3.92;1.48;;;;;;;;;;7390945;19;20156;-79
2022/06/10 11:07:26;;;;;;;4.38;1.98;;;;;;;;;;7382914;19;20168;-79
2022/06/10 11:09:53;;;;;;;4.30;1.52;;;;;;;;;;7385934;19;20414;-80
2022/06/10 11:12:21;;;;;;;2.10;1.40;;;;;;;;;;7377347;19;20156;-78
2022/06/10 11:14:58;;;;;;;3.78;1.60;;;;;;;;;;7389053;19;20156;-78
2022/06/10 11:17:25;;;;;;;2.67;1.75;;;;;;;;;;7372970;19;20155;-78
2022/06/10 11:20:09;;;;;;;2.60;1.38;;;;;;;;;;7391449;19;20854;-78
2022/06/10 11:22:39;;;;;;;3.78;1.60;;;;;;;;;;7390988;19;20152;-78
2022/06/10 11:25:06;;;;;;;3.33;1.90;;;;;;;;;;7390312;19;20149;-78
2022/06/10 11:27:40;;;;;;;3.05;1.80;;;;;;;;;;7392273;19;20160;-79
2022/06/10 11:30:09;;;;;;;3.03;1.20;;;;;;;;;;7393854;19;20136;-79
2022/06/10 11:32:55;;;;;;;1.77;1.33;;;;;;;;;;7390266;19;20560;-80
2022/06/10 11:35:31;;;;;;;4.20;1.38;;;;;;;;;;7382708;19;20149;-79
2022/06/10 11:38:07;;;;;;;3.25;1.40;;;;;;;;;;7394406;19;20244;-79
2022/06/10 11:40:48;;;;;;;4.20;1.50;;;;;;;;;;7390179;19;20136;-80
2022/06/10 11:43:15;;;;;;;4.18;2.22;;;;;;;;;;7398387;19;20136;-79
2022/06/10 11:45:50;;;;;;;4.28;1.52;;;;;;;;;;7392161;19;20963;-79
2022/06/10 11:48:42;;;;;;;2.60;1.25;;;;;;;;;;7389437;19;20160;-79
2022/06/10 11:51:31;;;;;;;5.32;1.65;;;;;;;;;;7392335;19;20496;-79
2022/06/10 11:54:03;;;;;;;4.40;1.67;;;;;;;;;;7393999;19;20172;-79
2022/06/10 11:59:42;;;;;;;5.00;1.70;;;;;;;;;;7392876;19;20120;-79
2022/06/10 12:02:10;;;;;;;26.58;7.80;;;;;;;;;;7381071;19;20144;-79
2022/06/10 12:04:40;;;;;;;31.77;8.65;;;;;;;;;;7385053;19;20141;-79
2022/06/10 12:07:10;;;;;;;295.50;72.93;;;;;;;;;;7388677;19;20244;-79
2022/06/10 12:09:42;;;;;;;5.20;2.33;;;;;;;;;;7385166;19;20144;-81
2022/06/10 12:12:14;;;;;;;4.25;1.83;;;;;;;;;;7391664;19;20131;-80
2022/06/10 12:14:48;;;;;;;12.35;2.15;;;;;;;;;;7377617;19;20133;-81
2022/06/10 12:17:36;;;;;;;2.42;1.60;;;;;;;;;;7380453;19;20172;-80
2022/06/10 12:20:05;;;;;;;2.42;1.45;;;;;;;;;;7385291;19;20152;-80
2022/06/10 12:22:32;;;;;;;6.28;1.83;;;;;;;;;;7385476;19;20157;-80
2022/06/10 12:24:58;;;;;;;3.17;1.25;;;;;;;;;;7371895;19;20164;-81
2022/06/10 12:27:29;;;;;;;5.05;1.35;;;;;;;;;;7375814;19;20172;-81
2022/06/10 12:30:02;;;;;;;2.22;1.40;;;;;;;;;;7376350;19;20196;-80
2022/06/10 12:32:47;;;;;;;3.17;1.55;;;;;;;;;;7386312;19;20208;-81
2022/06/10 12:35:21;;;;;;;2.90;1.20;;;;;;;;;;7390018;19;20156;-80
2022/06/10 12:37:55;;;;;;;2.83;1.40;;;;;;;;;;7387010;19;20140;-80
2022/06/10 12:40:27;;;;;;;1.63;1.20;;;;;;;;;;7386497;19;20123;-80
2022/06/10 12:42:55;;;;;;;3.53;1.55;;;;;;;;;;7386311;19;20172;-80
2022/06/10 12:45:21;;;;;;;4.28;1.55;;;;;;;;;;7381382;19;20188;-81
2022/06/10 12:47:49;;;;;;;3.03;1.77;;;;;;;;;;7377693;19;20153;-80
2022/06/10 12:50:17;;;;;;;2.33;1.40;;;;;;;;;;7385306;19;20152;-79
2022/06/10 12:52:52;;;;;;;3.03;1.38;;;;;;;;;;7405053;19;20149;-84
2022/06/10 12:55:33;;;;;;;2.55;1.38;;;;;;;;;;7413461;19;20127;-84
2022/06/10 12:57:59;;;;;;;3.05;1.27;;;;;;;;;;7413803;19;20133;-83
2022/06/10 13:00:27;;;;;;;4.95;1.52;;;;;;;;;;7415296;19;20137;-82
2022/06/10 13:02:59;;;;;;;3.47;1.83;;;;;;;;;;7413278;19;20145;-81
2022/06/10 13:05:28;;;;;;;7.65;1.55;;;;;;;;;;7387748;19;20149;-81
2022/06/10 13:07:55;;;;;;;2.25;1.40;;;;;;;;;;7385291;19;20162;-80
2022/06/10 13:10:30;;;;;;;2.35;1.48;;;;;;;;;;7380492;19;20145;-81
2022/06/10 13:13:17;;;;;;;1.92;1.23;;;;;;;;;;7385201;19;20187;-80
2022/06/10 13:15:43;;;;;;;3.83;1.55;;;;;;;;;;7390676;19;20168;-80
2022/06/10 13:18:16;;;;;;;2.10;1.40;;;;;;;;;;7396484;19;20164;-80
2022/06/10 13:20:42;;;;;;;6.05;1.52;;;;;;;;;;7389185;19;20220;-80
2022/06/10 13:23:12;;;;;;;2.70;1.40;;;;;;;;;;7389152;19;20160;-81
2022/06/10 13:25:38;;;;;;;1.75;1.20;;;;;;;;;;7393897;19;20164;-82
2022/06/10 13:28:13;;;;;;;2.30;1.58;;;;;;;;;;7416048;19;20141;-82
